Time;durP1;ratioP1;P1;durP2;ratioP2;P2;SDS_P1;SDS_P2;PMS_P1;PMS_P2;Temp;Humidity;BMP_temperature;BMP_pressure;BME280_temperature;BME280_humidity;BME280_pressure;Samples;Min_cycle;Max_cycle;Signal;HPM_P1;HPM_P2
2021/06/13 00:01:21;;;;;;;9.10;8.25;;;;;;;14.36;80.41;96513.31;1750774;81;20913;-79
2021/06/13 00:03:48;;;;;;;9.83;8.83;;;;;;;14.35;80.61;96517.43;1757586;80;21015;-79
2021/06/13 00:06:14;;;;;;;7.60;6.85;;;;;;;14.30;80.60;96525.85;1773956;81;21350;-79
2021/06/13 00:08:40;;;;;;;8.75;7.72;;;;;;;14.26;80.99;96518.63;1761051;81;20936;-79
2021/06/13 00:11:06;;;;;;;7.97;7.00;;;;;;;14.17;80.65;96515.42;1764732;81;20919;-79
2021/06/13 00:13:32;;;;;;;8.60;7.87;;;;;;;14.17;81.02;96523.27;1770392;80;20956;-79
2021/06/13 00:15:57;;;;;;;8.80;8.08;;;;;;;14.19;80.97;96525.67;1780720;80;20920;-79
2021/06/13 00:18:24;;;;;;;9.38;8.55;;;;;;;14.20;81.54;96524.66;1777220;79;20976;-79
2021/06/13 00:20:50;;;;;;;10.35;9.40;;;;;;;14.20;81.10;96528.59;1780708;80;20925;-79
2021/06/13 00:23:16;;;;;;;9.10;8.33;;;;;;;14.18;81.25;96531.41;1780415;80;20921;-79
2021/06/13 00:25:43;;;;;;;9.68;8.75;;;;;;;14.13;81.21;96526.75;1773693;80;21035;-79
2021/06/13 00:28:08;;;;;;;11.97;8.65;;;;;;;14.15;81.21;96523.94;1777478;80;20944;-79
2021/06/13 00:30:34;;;;;;;9.33;8.53;;;;;;;14.14;81.11;96528.86;1770578;80;20960;-79
2021/06/13 00:33:00;;;;;;;8.43;7.65;;;;;;;14.17;81.17;96528.48;1762456;80;20905;-79
2021/06/13 00:35:26;;;;;;;10.75;9.25;;;;;;;14.18;81.05;96526.17;1775627;80;20902;-80
2021/06/13 00:37:52;;;;;;;11.70;9.10;;;;;;;14.23;81.04;96526.37;1774814;80;20961;-80
2021/06/13 00:40:20;;;;;;;11.25;10.03;;;;;;;14.27;81.10;96522.84;1778589;80;20941;-80
2021/06/13 00:42:46;;;;;;;9.85;8.95;;;;;;;14.22;80.76;96518.23;1753576;81;20909;-79
2021/06/13 00:45:12;;;;;;;10.82;9.83;;;;;;;14.18;80.87;96526.68;1753453;81;20952;-79
2021/06/13 00:47:39;;;;;;;10.43;9.33;;;;;;;14.18;80.97;96514.41;1774716;80;21344;-79
2021/06/13 00:50:08;;;;;;;9.60;8.70;;;;;;;14.23;80.88;96510.69;1780615;80;20916;-79
2021/06/13 00:52:34;;;;;;;10.20;9.18;;;;;;;14.28;80.72;96512.19;1753798;80;21040;-79
2021/06/13 00:55:01;;;;;;;10.25;9.25;;;;;;;14.30;80.64;96516.70;1752475;80;20936;-80
2021/06/13 00:57:26;;;;;;;11.20;9.45;;;;;;;14.28;80.59;96504.34;1770340;80;20968;-79
2021/06/13 00:59:52;;;;;;;11.40;10.05;;;;;;;14.25;80.51;96507.37;1751246;81;20936;-79
2021/06/13 01:02:18;;;;;;;11.28;10.18;;;;;;;14.25;80.60;96509.98;1762284;80;20917;-79
2021/06/13 01:04:44;;;;;;;11.33;10.08;;;;;;;14.24;80.82;96508.38;1780867;80;20917;-79
2021/06/13 01:07:31;;;;;;;10.25;9.13;;;;;;;14.25;80.62;96512.59;1777171;80;20925;-79
2021/06/13 01:10:08;;;;;;;10.58;9.60;;;;;;;14.24;80.56;96510.98;1777362;80;20957;-79
2021/06/13 01:12:44;;;;;;;10.50;9.43;;;;;;;14.18;80.40;96513.61;1774745;81;21044;-80
2021/06/13 01:15:15;;;;;;;11.15;10.05;;;;;;;14.12;80.60;96519.12;1772693;80;20940;-79
2021/06/13 01:18:06;;;;;;;11.00;10.05;;;;;;;14.11;80.66;96525.34;1777005;80;21004;-79
2021/06/13 01:20:46;;;;;;;10.80;9.83;;;;;;;14.11;80.80;96527.46;1778184;81;20985;-79
2021/06/13 01:23:35;;;;;;;11.73;9.83;;;;;;;14.03;81.28;96532.89;1772663;81;21290;-79
2021/06/13 01:26:42;;;;;;;11.45;10.35;;;;;;;13.92;80.79;96531.36;1748964;81;20945;-80
2021/06/13 01:29:15;;;;;;;10.10;9.03;;;;;;;13.91;80.91;96541.51;1748117;81;21017;-79
2021/06/13 01:31:47;;;;;;;11.75;9.58;;;;;;;13.92;80.93;96536.09;1737129;80;20933;-79
2021/06/13 01:34:16;;;;;;;;;;;;;;;13.87;80.73;96534.58;1778517;80;20940;-79
2021/06/13 01:36:41;;;;;;;11.35;10.25;;;;;;;13.89;80.79;96534.38;1777206;81;20318;-79
2021/06/13 01:39:12;;;;;;;11.85;10.75;;;;;;;13.89;80.85;96538.30;1775936;80;20954;-79
2021/06/13 01:41:38;;;;;;;13.55;10.85;;;;;;;13.89;80.99;96535.18;1772329;81;21067;-79
2021/06/13 01:44:05;;;;;;;9.85;8.85;;;;;;;13.92;80.99;96529.55;1771738;80;21234;-79
2021/06/13 01:46:34;;;;;;;10.58;9.58;;;;;;;13.91;80.53;96527.95;1775092;80;21313;-79
2021/06/13 01:48:59;;;;;;;12.10;9.08;;;;;;;13.90;80.50;96525.53;1773662;81;21011;-79
2021/06/13 01:51:25;;;;;;;11.12;9.35;;;;;;;13.89;80.54;96520.02;1767495;80;20997;-79
2021/06/13 01:53:51;;;;;;;11.25;9.33;;;;;;;13.90;80.83;96514.59;1772143;80;20949;-79
2021/06/13 01:56:17;;;;;;;9.35;8.15;;;;;;;13.83;80.80;96530.77;1774717;81;20949;-79
2021/06/13 01:58:45;;;;;;;10.60;7.90;;;;;;;13.75;80.53;96519.98;1777130;81;20928;-79
2021/06/13 02:01:13;;;;;;;11.00;8.23;;;;;;;13.73;80.54;96527.72;1775209;80;20920;-79
2021/06/13 02:03:46;;;;;;;6.70;6.10;;;;;;;13.67;80.57;96529.31;1759843;81;21293;-80
2021/06/13 02:06:11;;;;;;;9.05;8.25;;;;;;;13.59;80.28;96529.98;1775824;80;21016;-79
2021/06/13 02:08:38;;;;;;;8.63;7.35;;;;;;;13.53;80.46;96538.11;1774020;80;21011;-79
2021/06/13 02:11:05;;;;;;;8.33;7.28;;;;;;;13.51;80.71;96542.23;1777191;80;20948;-79
2021/06/13 02:13:31;;;;;;;6.22;5.72;;;;;;;13.48;80.53;96546.51;1762821;80;20921;-79
2021/06/13 02:15:57;;;;;;;7.50;5.78;;;;;;;13.48;80.55;96543.09;1762485;81;20894;-79
2021/06/13 02:18:24;;;;;;;7.60;5.95;;;;;;;13.49;80.55;96535.56;1752774;80;20975;-79
2021/06/13 02:20:50;;;;;;;6.53;5.92;;;;;;;13.53;80.55;96545.14;1750153;80;20925;-79
2021/06/13 02:23:16;;;;;;;5.75;5.15;;;;;;;13.49;80.13;96544.20;1763085;80;20917;-79
2021/06/13 02:25:42;;;;;;;6.78;6.10;;;;;;;13.36;79.83;96547.28;1771326;80;21310;-79
2021/06/13 02:28:08;;;;;;;6.78;6.03;;;;;;;13.28;80.12;96550.05;1755920;81;20960;-79
2021/06/13 02:30:37;;;;;;;7.42;6.03;;;;;;;13.22;80.30;96550.33;1769281;80;20900;-79
2021/06/13 02:33:03;;;;;;;8.43;5.42;;;;;;;13.20;80.41;96548.42;1762319;80;20952;-79
2021/06/13 02:35:29;;;;;;;5.62;5.12;;;;;;;13.20;80.38;96562.27;1757247;80;20987;-79
2021/06/13 02:37:57;;;;;;;6.33;4.95;;;;;;;13.21;80.24;96557.36;1778292;80;20881;-79
2021/06/13 02:40:23;;;;;;;7.37;6.30;;;;;;;13.20;80.22;96560.97;1781054;80;20969;-79
2021/06/13 02:42:50;;;;;;;6.92;5.35;;;;;;;13.21;80.31;96559.16;1757175;81;21033;-79
2021/06/13 02:45:20;;;;;;;6.97;4.92;;;;;;;13.20;80.33;96567.48;1762333;80;21262;-79
2021/06/13 02:47:46;;;;;;;6.10;5.03;;;;;;;13.19;80.31;96568.48;1750520;80;20989;-79
2021/06/13 02:50:12;;;;;;;7.60;5.33;;;;;;;13.16;80.06;96571.92;1769802;80;20989;-79
2021/06/13 02:52:52;;;;;;;7.62;5.80;;;;;;;13.11;80.06;96580.84;1747768;81;20952;-79
2021/06/13 02:55:24;;;;;;;5.47;4.85;;;;;;;13.09;80.14;96583.64;1761231;80;20986;-79
2021/06/13 02:58:02;;;;;;;6.10;5.12;;;;;;;13.03;80.42;96585.73;1772094;80;20898;-79
2021/06/13 03:00:27;;;;;;;5.95;5.35;;;;;;;12.91;80.57;96591.16;1752889;80;21269;-80
2021/06/13 03:02:54;;;;;;;6.22;5.62;;;;;;;12.84;80.65;96587.69;1777097;80;20917;-79
2021/06/13 03:05:22;;;;;;;5.95;5.35;;;;;;;12.82;80.71;96594.90;1777766;80;20889;-79
2021/06/13 03:07:49;;;;;;;9.13;7.10;;;;;;;12.84;80.86;96596.31;1777598;80;20938;-79
2021/06/13 03:10:14;;;;;;;5.28;4.62;;;;;;;12.85;80.77;96600.56;1777755;80;20893;-79
2021/06/13 03:12:40;;;;;;;6.72;5.37;;;;;;;12.88;80.98;96601.48;1775168;80;20976;-79
2021/06/13 03:15:07;;;;;;;6.58;5.87;;;;;;;12.87;80.77;96605.09;1729309;81;20976;-77
2021/06/13 03:17:37;;;;;;;6.08;5.47;;;;;;;12.86;80.61;96606.58;1777646;80;20976;-77
2021/06/13 03:20:06;;;;;;;5.97;5.03;;;;;;;12.85;80.75;96613.60;1773566;80;21066;-76
2021/06/13 03:22:35;;;;;;;5.65;4.97;;;;;;;12.86;80.64;96615.21;1765935;81;21334;-77
2021/06/13 03:25:00;;;;;;;5.65;5.03;;;;;;;12.88;80.65;96620.23;1762834;80;21997;-76
2021/06/13 03:27:26;;;;;;;5.50;4.97;;;;;;;12.84;80.44;96621.59;1774593;81;20973;-77
2021/06/13 03:29:52;;;;;;;5.87;5.15;;;;;;;12.82;80.76;96627.50;1773810;80;21004;-76
2021/06/13 03:32:17;;;;;;;6.00;5.17;;;;;;;12.76;80.76;96626.96;1777325;80;20882;-77
2021/06/13 03:34:43;;;;;;;7.30;6.15;;;;;;;12.73;80.95;96624.73;1744489;81;21218;-77
2021/06/13 03:37:10;;;;;;;8.43;5.67;;;;;;;12.71;81.05;96630.64;1765438;81;20944;-77
2021/06/13 03:39:36;;;;;;;5.67;5.15;;;;;;;12.69;81.03;96635.20;1761790;80;20991;-76
2021/06/13 03:42:02;;;;;;;8.13;5.28;;;;;;;12.69;81.04;96626.09;1762241;80;21194;-76
2021/06/13 03:44:28;;;;;;;7.12;5.40;;;;;;;12.72;81.17;96636.16;1778837;81;20952;-76
2021/06/13 03:46:54;;;;;;;7.95;5.70;;;;;;;12.79;81.32;96634.40;1759905;80;20981;-76
2021/06/13 03:49:21;;;;;;;8.55;6.00;;;;;;;12.79;81.16;96643.52;1768840;81;20960;-76
2021/06/13 03:51:47;;;;;;;7.50;6.75;;;;;;;12.79;81.21;96645.63;1778183;80;20917;-76
2021/06/13 03:54:13;;;;;;;7.83;6.53;;;;;;;12.77;81.11;96650.73;1778451;81;20949;-77
2021/06/13 03:56:42;;;;;;;6.22;5.60;;;;;;;12.72;81.23;96652.61;1778835;81;20968;-77
2021/06/13 03:59:11;;;;;;;7.90;5.55;;;;;;;12.75;81.38;96653.53;1762724;81;20988;-76
2021/06/13 04:01:40;;;;;;;7.35;5.50;;;;;;;12.80;81.32;96658.17;1774267;80;20900;-76
2021/06/13 04:04:06;;;;;;;6.37;5.87;;;;;;;12.84;81.57;96648.97;1777710;80;20971;-77
2021/06/13 04:06:32;;;;;;;7.97;6.20;;;;;;;12.87;81.38;96653.34;1778593;80;21330;-77
2021/06/13 04:08:58;;;;;;;8.75;6.55;;;;;;;12.88;81.33;96648.92;1758270;81;20961;-76
2021/06/13 04:11:24;;;;;;;6.80;6.20;;;;;;;12.87;81.44;96652.03;1760582;80;20977;-76
2021/06/13 04:13:50;;;;;;;7.62;6.20;;;;;;;12.87;81.47;96653.83;1767049;81;21016;-77
2021/06/13 04:16:20;;;;;;;7.65;5.67;;;;;;;12.81;81.30;96658.48;1773865;80;21302;-76
2021/06/13 04:18:45;;;;;;;6.17;5.60;;;;;;;12.79;81.31;96665.19;1774684;80;21318;-77
2021/06/13 04:21:13;;;;;;;6.47;5.70;;;;;;;12.72;81.53;96666.95;1762179;80;20900;-77
2021/06/13 04:23:42;;;;;;;6.97;6.20;;;;;;;12.71;81.48;96670.55;1776072;80;21266;-76
2021/06/13 04:26:12;;;;;;;7.28;6.30;;;;;;;12.72;81.61;96661.73;1778641;81;21027;-76
2021/06/13 04:28:37;;;;;;;6.47;5.65;;;;;;;12.78;81.83;96672.70;1775020;80;21315;-77
2021/06/13 04:31:10;;;;;;;7.42;5.37;;;;;;;12.83;81.77;96672.13;1754647;80;20901;-77
2021/06/13 04:33:35;;;;;;;6.85;5.47;;;;;;;12.80;81.38;96680.34;1762762;80;21281;-77
2021/06/13 04:36:01;;;;;;;9.93;5.60;;;;;;;12.83;81.39;96674.24;1769881;81;20913;-76
2021/06/13 04:38:27;;;;;;;6.03;5.47;;;;;;;12.86;81.10;96677.00;1759292;81;20979;-77
2021/06/13 04:40:53;;;;;;;5.87;4.83;;;;;;;12.82;80.95;96675.73;1776056;81;21222;-76
2021/06/13 04:43:19;;;;;;;7.75;6.20;;;;;;;12.80;80.79;96679.84;1777277;80;21023;-77
2021/06/13 04:45:44;;;;;;;8.73;6.33;;;;;;;12.75;80.61;96675.70;1777891;81;20992;-76
2021/06/13 04:48:11;;;;;;;6.90;6.05;;;;;;;12.77;80.97;96682.02;1776357;80;20957;-76
2021/06/13 04:50:41;;;;;;;5.45;4.78;;;;;;;12.82;80.77;96669.22;1763181;81;21321;-77
2021/06/13 04:53:54;;;;;;;8.13;5.58;;;;;;;12.81;80.60;96669.72;1778124;81;20960;-76
2021/06/13 04:57:05;;;;;;;8.50;5.87;;;;;;;12.82;81.03;96671.33;1757826;81;20936;-77
2021/06/13 04:59:31;;;;;;;6.72;6.03;;;;;;;12.84;80.72;96671.13;1762202;81;20932;-76
2021/06/13 05:01:59;;;;;;;9.58;7.00;;;;;;;12.85;80.88;96672.75;1747718;81;20898;-76
2021/06/13 05:04:26;;;;;;;8.50;6.90;;;;;;;12.82;80.91;96664.80;1749424;81;20997;-76
2021/06/13 05:06:52;;;;;;;6.83;6.22;;;;;;;12.78;81.09;96674.50;1761248;80;21254;-77
2021/06/13 05:09:18;;;;;;;8.95;5.67;;;;;;;12.73;81.15;96692.03;1771010;80;20878;-77
2021/06/13 05:11:43;;;;;;;9.58;8.15;;;;;;;12.66;81.44;96695.05;1775018;80;20991;-77
2021/06/13 05:14:09;;;;;;;11.60;9.83;;;;;;;12.59;81.04;96700.22;1771245;80;20908;-76
2021/06/13 05:16:37;;;;;;;7.87;7.00;;;;;;;12.56;81.18;96707.11;1773504;80;21014;-76
2021/06/13 05:19:03;;;;;;;8.98;7.95;;;;;;;12.56;81.50;96710.22;1712838;82;21017;-77
2021/06/13 05:21:28;;;;;;;8.50;7.03;;;;;;;12.58;81.90;96717.34;1755943;81;20898;-76
2021/06/13 05:23:54;;;;;;;8.78;5.53;;;;;;;12.60;81.24;96720.08;1770683;81;20901;-77
2021/06/13 05:26:20;;;;;;;5.80;5.22;;;;;;;12.66;81.12;96698.97;1755722;81;20972;-76
2021/06/13 05:28:46;;;;;;;6.28;4.53;;;;;;;12.69;81.38;96702.52;1774061;80;20940;-76
2021/06/13 05:31:13;;;;;;;6.12;5.53;;;;;;;12.71;81.14;96716.18;1749697;81;21306;-76
2021/06/13 05:33:39;;;;;;;9.25;6.10;;;;;;;12.70;81.09;96715.06;1775789;80;20909;-77
2021/06/13 05:36:04;;;;;;;5.10;4.58;;;;;;;12.72;81.33;96720.40;1774335;80;21279;-76
2021/06/13 05:38:30;;;;;;;8.00;4.90;;;;;;;12.72;81.17;96726.11;1773707;81;20966;-77
2021/06/13 05:40:56;;;;;;;6.00;4.05;;;;;;;12.70;81.00;96733.31;1768186;80;20925;-77
2021/06/13 05:43:21;;;;;;;6.17;4.40;;;;;;;12.65;80.81;96728.64;1775072;80;20909;-77
2021/06/13 05:45:47;;;;;;;6.97;5.53;;;;;;;12.61;80.68;96730.81;1760501;81;20913;-77
2021/06/13 05:48:13;;;;;;;8.20;5.40;;;;;;;12.60;80.72;96738.82;1761904;80;20953;-77
2021/06/13 05:50:39;;;;;;;8.45;5.37;;;;;;;12.62;80.96;96738.14;1772649;81;20936;-77
2021/06/13 05:53:06;;;;;;;7.20;4.87;;;;;;;12.63;81.22;96739.75;1758585;80;21036;-77
2021/06/13 05:55:33;;;;;;;11.83;5.17;;;;;;;12.60;81.07;96733.61;1766494;81;20897;-77
2021/06/13 05:57:59;;;;;;;5.55;3.15;;;;;;;12.61;80.69;96745.16;1775895;80;20980;-77
2021/06/13 06:00:29;;;;;;;6.17;3.72;;;;;;;12.62;80.43;96738.14;1768691;81;20905;-77
2021/06/13 06:02:54;;;;;;;7.45;4.65;;;;;;;12.60;80.38;96747.95;1757198;80;20936;-77
2021/06/13 06:05:21;;;;;;;7.90;5.10;;;;;;;12.57;80.32;96746.52;1747953;81;20944;-77
2021/06/13 06:07:48;;;;;;;5.33;4.53;;;;;;;12.57;80.47;96745.22;1721691;81;20957;-77
2021/06/13 06:10:15;;;;;;;6.22;4.50;;;;;;;12.54;80.43;96759.93;1718254;81;20976;-77
2021/06/13 06:12:45;;;;;;;5.95;3.87;;;;;;;12.51;80.63;96761.58;1727891;82;20908;-77
2021/06/13 06:15:18;;;;;;;7.95;3.90;;;;;;;12.47;80.19;96764.25;1732151;81;20881;-77
2021/06/13 06:17:44;;;;;;;4.60;3.58;;;;;;;12.40;79.86;96771.20;1714015;82;20929;-77
2021/06/13 06:20:12;;;;;;;5.30;3.83;;;;;;;12.36;80.08;96776.94;1727323;81;21012;-77
2021/06/13 06:22:37;;;;;;;6.35;4.72;;;;;;;12.38;80.13;96784.10;1713660;82;20937;-77
2021/06/13 07:37:06;;;;;;;5.47;3.35;;;;;;;13.56;76.12;96827.51;1766548;80;22480;-77
2021/06/13 07:39:33;;;;;;;4.78;3.45;;;;;;;13.59;74.87;96834.15;1736349;81;20963;-77
2021/06/13 07:41:59;;;;;;;4.53;3.33;;;;;;;13.55;74.74;96834.22;1752955;80;20923;-77
2021/06/13 07:44:26;;;;;;;5.92;3.22;;;;;;;13.49;74.50;96839.19;1746568;80;21010;-77
2021/06/13 07:46:53;;;;;;;5.20;2.90;;;;;;;13.44;73.28;96849.89;1737353;80;21351;-77
2021/06/13 07:49:19;;;;;;;6.60;3.42;;;;;;;13.30;72.95;96843.74;1742608;80;20996;-77
2021/06/13 07:51:45;;;;;;;5.47;3.30;;;;;;;13.25;73.64;96851.83;1741268;80;20928;-77
2021/06/13 07:54:10;;;;;;;5.30;3.77;;;;;;;13.15;72.80;96843.77;1746159;80;20971;-77
2021/06/13 07:56:36;;;;;;;6.65;3.72;;;;;;;13.12;73.22;96857.20;1741682;80;20975;-78
2021/06/13 07:59:02;;;;;;;5.83;3.37;;;;;;;13.00;72.57;96854.76;1752173;80;20972;-77
2021/06/13 08:01:28;;;;;;;6.70;4.20;;;;;;;12.86;72.15;96866.88;1752781;80;21194;-77
2021/06/13 08:03:54;;;;;;;3.45;2.98;;;;;;;12.77;72.40;96864.55;1754638;80;20978;-77
2021/06/13 08:06:20;;;;;;;6.42;3.60;;;;;;;12.78;73.02;96865.66;1747042;80;21259;-77
2021/06/13 08:08:46;;;;;;;5.45;3.65;;;;;;;12.88;73.46;96866.19;1736848;80;21396;-77
2021/06/13 08:11:12;;;;;;;7.15;5.97;;;;;;;13.02;73.40;96872.36;1707033;81;20947;-77
2021/06/13 08:13:38;;;;;;;5.78;3.92;;;;;;;13.19;74.11;96872.47;1737153;81;20943;-77
2021/06/13 08:16:06;;;;;;;5.35;2.92;;;;;;;13.30;72.33;96867.73;1746088;80;20984;-78
2021/06/13 08:18:32;;;;;;;7.60;2.90;;;;;;;13.35;72.23;96876.64;1747639;80;21027;-77
2021/06/13 08:20:58;;;;;;;4.45;3.05;;;;;;;13.40;72.31;96875.56;1742207;80;21000;-77
2021/06/13 08:23:24;;;;;;;5.72;2.85;;;;;;;13.44;71.95;96874.19;1740969;80;20943;-77
2021/06/13 08:25:50;;;;;;;6.37;2.77;;;;;;;13.47;71.85;96883.45;1756111;80;20979;-78
2021/06/13 08:28:16;;;;;;;6.08;3.12;;;;;;;13.51;71.29;96880.80;1747477;80;20948;-77
2021/06/13 08:30:42;;;;;;;3.12;1.90;;;;;;;13.60;71.30;96894.01;1756871;80;20888;-77
2021/06/13 08:33:07;;;;;;;6.50;2.80;;;;;;;13.56;68.78;96885.45;1753474;80;20951;-77
2021/06/13 08:35:34;;;;;;;6.87;2.50;;;;;;;13.50;69.55;96890.89;1761540;80;21315;-78
2021/06/13 08:38:03;;;;;;;3.98;2.10;;;;;;;13.48;69.50;96892.39;1749951;80;20994;-77
2021/06/13 08:40:29;;;;;;;5.08;2.45;;;;;;;13.59;71.20;96888.98;1752900;80;20940;-77
2021/06/13 08:42:55;;;;;;;7.55;3.05;;;;;;;13.85;70.23;96892.31;1740069;80;20940;-77
2021/06/13 08:45:22;;;;;;;7.40;5.15;;;;;;;14.14;71.09;96892.09;1752590;80;21058;-78
2021/06/13 08:47:50;;;;;;;5.60;2.65;;;;;;;14.24;70.14;96893.08;1755293;80;21216;-78
2021/06/13 08:50:16;;;;;;;7.08;2.90;;;;;;;14.33;68.40;96890.63;1711587;81;20935;-77
2021/06/13 08:52:42;;;;;;;7.17;2.85;;;;;;;14.25;67.41;96902.03;1757629;80;20955;-78
2021/06/13 08:55:09;;;;;;;7.47;3.12;;;;;;;14.17;66.23;96899.58;1735630;80;20966;-78
2021/06/13 08:57:36;;;;;;;4.22;2.52;;;;;;;14.08;65.26;96899.41;1747748;80;20947;-78
2021/06/13 09:00:13;;;;;;;6.15;3.17;;;;;;;13.96;64.92;96897.80;1761231;80;21023;-78
2021/06/13 09:02:40;;;;;;;7.22;2.60;;;;;;;13.88;65.63;96907.10;1727459;80;20943;-79
2021/06/13 09:05:07;;;;;;;7.28;3.40;;;;;;;13.79;64.91;96908.22;1739196;80;21003;-78
2021/06/13 09:07:34;;;;;;;3.45;2.30;;;;;;;14.01;65.55;96902.48;1750139;80;20986;-78
2021/06/13 09:10:09;;;;;;;6.33;2.98;;;;;;;14.44;66.48;96894.02;1741642;80;21296;-79
2021/06/13 09:12:37;;;;;;;3.67;2.45;;;;;;;14.90;65.65;96894.73;1735735;80;20975;-78
2021/06/13 09:15:05;;;;;;;5.35;2.75;;;;;;;15.09;62.11;96902.33;1734583;80;21268;-78
2021/06/13 09:17:31;;;;;;;4.37;2.27;;;;;;;14.94;62.65;96911.64;1739418;80;21331;-78
2021/06/13 09:20:17;;;;;;;5.22;2.42;;;;;;;14.86;64.18;96907.91;1747803;80;20993;-79
2021/06/13 09:22:38;;;;;;;5.08;2.62;;;;;;;14.80;64.61;96908.16;1738316;80;20937;-79
2021/06/13 09:25:13;;;;;;;4.80;2.37;;;;;;;14.73;63.50;96919.61;1724754;81;21018;-79
2021/06/13 09:27:41;;;;;;;4.37;2.37;;;;;;;14.91;60.91;96928.55;1744276;80;21278;-79
2021/06/13 09:30:09;;;;;;;3.70;2.20;;;;;;;15.05;60.75;96920.24;1752681;80;20988;-79
2021/06/13 09:33:13;;;;;;;4.05;2.52;;;;;;;15.28;61.88;96905.50;1757457;80;21212;-79
2021/06/13 09:35:41;;;;;;;7.33;3.60;;;;;;;15.43;61.23;96921.03;1752901;81;21418;-79
2021/06/13 09:38:17;;;;;;;5.17;2.55;;;;;;;15.44;60.79;96918.22;1710300;81;20987;-79
2021/06/13 09:40:47;;;;;;;5.55;3.10;;;;;;;15.44;59.41;96916.10;1718077;81;21292;-78
2021/06/13 09:43:15;;;;;;;7.95;3.00;;;;;;;15.31;62.18;96931.30;1707551;81;21030;-79
2021/06/13 09:45:54;;;;;;;6.45;2.62;;;;;;;15.10;60.07;96934.04;1710719;81;21071;-79
2021/06/13 09:48:20;;;;;;;5.08;2.35;;;;;;;14.94;60.52;96929.45;1711728;81;20994;-79
2021/06/13 09:50:49;;;;;;;4.28;2.62;;;;;;;15.15;62.03;96939.52;1713456;81;21796;-77
2021/06/13 09:53:25;;;;;;;5.33;2.95;;;;;;;15.33;60.45;96937.66;1719525;81;20971;-77
2021/06/13 09:56:05;;;;;;;3.45;2.52;;;;;;;15.22;60.98;96937.20;1713678;81;20967;-78
2021/06/13 09:58:31;;;;;;;4.22;2.55;;;;;;;15.11;60.13;96944.81;1706972;81;20956;-78
2021/06/13 10:01:07;;;;;;;5.75;2.65;;;;;;;14.87;59.37;96941.72;1723881;81;20964;-78
2021/06/13 10:03:37;;;;;;;6.58;3.08;;;;;;;14.70;60.02;96948.27;1652423;85;21297;-78
2021/06/13 10:06:06;;;;;;;4.65;2.65;;;;;;;14.53;60.77;96948.28;1652181;84;21361;-79
2021/06/13 10:08:33;;;;;;;7.80;2.85;;;;;;;14.44;62.08;96948.11;1691795;83;21009;-78
2021/06/13 10:10:59;;;;;;;6.30;2.80;;;;;;;14.38;61.14;96953.59;1661355;84;21102;-79
2021/06/13 10:13:47;;;;;;;4.78;2.92;;;;;;;14.28;61.64;96952.61;1656121;84;21019;-78
2021/06/13 10:16:26;;;;;;;5.40;2.85;;;;;;;14.20;62.24;96956.69;1653190;84;20960;-78
2021/06/13 10:18:58;;;;;;;5.30;3.02;;;;;;;14.12;63.10;96956.81;1657722;84;20955;-78
2021/06/13 10:21:54;;;;;;;5.08;2.60;;;;;;;14.12;63.49;96960.73;1668217;84;21273;-79
2021/06/13 10:24:26;;;;;;;5.53;2.77;;;;;;;14.15;64.01;96968.19;1656613;84;20967;-79
2021/06/13 10:26:57;;;;;;;;;;;;;;;14.18;62.49;96976.98;1632592;85;21012;-79
2021/06/13 10:29:28;;;;;;;3.62;2.08;;;;;;;14.09;61.97;96968.95;1657429;84;20111;-79
2021/06/13 10:31:57;;;;;;;5.77;2.50;;;;;;;14.17;61.77;96963.61;1654704;84;21340;-79
2021/06/13 10:34:24;;;;;;;5.60;2.27;;;;;;;14.16;62.18;96965.91;1661863;84;21004;-79
2021/06/13 10:36:51;;;;;;;5.20;2.45;;;;;;;14.09;61.47;96973.69;1716979;82;21035;-79
2021/06/13 10:39:19;;;;;;;6.08;2.70;;;;;;;14.21;61.95;96964.84;1708486;82;21332;-79
2021/06/13 10:41:45;;;;;;;4.80;2.75;;;;;;;14.32;62.22;96972.66;1712296;82;20876;-77
2021/06/13 10:44:14;;;;;;;6.10;2.60;;;;;;;14.35;61.50;96973.09;1708895;82;21288;-77
2021/06/13 10:46:42;;;;;;;5.62;2.75;;;;;;;14.42;61.84;96973.92;1708611;82;21268;-77
2021/06/13 10:49:30;;;;;;;3.05;2.20;;;;;;;14.47;62.16;96968.14;1712232;82;21019;-77
2021/06/13 10:52:19;;;;;;;6.60;2.40;;;;;;;14.64;62.33;96968.64;1714667;83;21265;-79
2021/06/13 10:54:55;;;;;;;5.35;2.50;;;;;;;14.88;62.84;96969.99;1692507;84;20921;-79
2021/06/13 10:57:30;;;;;;;4.25;2.40;;;;;;;14.93;59.62;96966.28;1712205;82;21043;-79
2021/06/13 10:59:58;;;;;;;6.30;3.42;;;;;;;15.20;57.79;96961.97;1708332;82;20956;-79
2021/06/13 11:02:27;;;;;;;4.75;2.67;;;;;;;15.14;59.38;96970.62;1718183;82;20982;-79
2021/06/13 11:05:04;;;;;;;3.35;2.37;;;;;;;15.06;57.72;96960.30;1686136;83;20989;-79
2021/06/13 11:07:40;;;;;;;5.10;2.37;;;;;;;14.90;58.75;96975.34;1728078;82;20936;-79
2021/06/13 11:12:48;;;;;;;5.10;2.20;;;;;;;14.76;60.44;96967.61;1730869;82;20998;-79
2021/06/13 11:15:31;;;;;;;3.80;1.70;;;;;;;14.63;59.06;96990.07;1698156;83;20901;-79
2021/06/13 11:18:08;;;;;;;4.05;2.40;;;;;;;14.48;58.02;96979.41;1689358;84;21240;-79
2021/06/13 11:23:27;;;;;;;7.87;3.80;;;;;;;14.38;57.46;96998.03;1705754;82;20992;-79
2021/06/13 11:25:57;;;;;;;5.42;4.17;;;;;;;14.41;60.12;96993.72;1694263;82;21095;-79
2021/06/13 11:28:44;;;;;;;6.45;1.95;;;;;;;14.53;59.76;96987.01;1713912;82;21015;-79
2021/06/13 11:31:18;;;;;;;3.35;2.52;;;;;;;14.64;58.57;96988.27;1695718;82;20912;-79
2021/06/13 11:33:48;;;;;;;5.40;2.77;;;;;;;14.67;57.58;96990.52;1727957;82;20928;-79
2021/06/13 11:36:23;;;;;;;3.87;1.90;;;;;;;14.71;57.44;96982.58;1715398;82;21037;-79
2021/06/13 11:39:05;;;;;;;5.87;3.58;;;;;;;14.80;58.35;96977.98;1681694;82;20945;-79
2021/06/13 11:41:44;;;;;;;5.35;2.72;;;;;;;15.00;59.07;96971.88;1712324;82;21003;-77
2021/06/13 11:44:23;;;;;;;5.28;2.08;;;;;;;15.22;58.37;96989.56;1693483;82;20932;-78
2021/06/13 11:46:53;;;;;;;5.10;2.50;;;;;;;15.18;55.36;96981.80;1711971;82;21031;-79
2021/06/13 11:49:21;;;;;;;8.38;4.33;;;;;;;15.14;57.12;96974.55;1712259;82;20971;-79
2021/06/13 11:52:00;;;;;;;8.08;3.62;;;;;;;15.22;58.04;96980.91;1718687;82;20949;-79
2021/06/13 11:54:35;;;;;;;4.25;2.65;;;;;;;15.26;57.99;96980.31;1703177;82;20935;-79
2021/06/13 11:57:03;;;;;;;7.62;4.67;;;;;;;15.41;57.53;96984.08;1708427;82;21024;-79
2021/06/13 11:59:29;;;;;;;7.70;4.03;;;;;;;15.83;57.72;96984.82;1708438;82;21278;-79
2021/06/13 12:01:57;;;;;;;3.67;2.33;;;;;;;16.16;56.88;96980.41;1698881;83;20997;-79
2021/06/13 12:04:24;;;;;;;6.12;3.00;;;;;;;16.02;55.31;96981.41;1701528;82;20897;-79
2021/06/13 12:06:50;;;;;;;5.53;3.20;;;;;;;15.92;56.21;96987.53;1695189;82;20984;-79
2021/06/13 12:09:18;;;;;;;4.42;2.45;;;;;;;15.87;55.58;96988.65;1712130;82;21220;-79
2021/06/13 12:11:55;;;;;;;6.28;2.83;;;;;;;15.76;56.04;96990.03;1708256;82;21041;-78
2021/06/13 12:29:39;;;;;;;3.40;1.80;;;;;;;16.58;52.14;96990.13;1794714;79;21314;-80
2021/06/13 12:37:19;;;;;;;2.72;1.75;;;;;;;16.33;50.92;96995.22;1667482;81;21113;-79
2021/06/13 12:39:59;;;;;;;5.90;2.52;;;;;;;16.23;53.14;96994.81;1661452;84;20969;-79
2021/06/13 12:42:26;;;;;;;4.72;1.87;;;;;;;16.03;52.93;97005.30;1675549;84;20925;-81
2021/06/13 12:45:11;;;;;;;4.08;2.00;;;;;;;15.80;53.15;97016.67;1665434;84;21281;-81
2021/06/13 12:47:38;;;;;;;4.17;2.37;;;;;;;15.61;53.39;97009.84;1662224;84;21000;-81
2021/06/13 12:50:06;;;;;;;6.87;2.37;;;;;;;15.64;55.35;97020.97;1687538;84;21387;-81
2021/06/13 12:52:32;;;;;;;3.75;2.22;;;;;;;15.71;54.73;97018.66;1677890;84;20913;-81
2021/06/13 12:55:02;;;;;;;4.95;2.42;;;;;;;15.63;54.13;97025.39;1672708;84;21020;-81
2021/06/13 12:57:28;;;;;;;5.17;2.35;;;;;;;15.48;53.05;97025.52;1665637;84;21420;-81
2021/06/13 12:59:54;;;;;;;6.50;2.62;;;;;;;15.29;54.25;97011.83;1673544;84;21309;-81
2021/06/13 13:02:21;;;;;;;8.20;3.40;;;;;;;15.30;55.10;97013.47;1667227;84;20942;-81
2021/06/13 13:04:52;;;;;;;4.90;2.22;;;;;;;15.34;55.89;97009.95;1674107;84;21325;-81
2021/06/13 13:07:32;;;;;;;8.88;6.53;;;;;;;15.36;55.11;97011.88;1672455;84;20996;-81
2021/06/13 13:10:23;;;;;;;3.67;2.72;;;;;;;15.39;56.35;97010.97;1667045;84;21010;-81
2021/06/13 13:12:54;;;;;;;7.63;2.70;;;;;;;15.50;56.07;97012.22;1678853;84;21297;-81
2021/06/13 13:15:29;;;;;;;5.40;2.25;;;;;;;15.72;55.28;97010.28;1658300;84;21686;-82
2021/06/13 13:17:57;;;;;;;4.50;2.33;;;;;;;15.80;55.29;97008.30;1677046;84;21032;-81
2021/06/13 13:20:32;;;;;;;5.78;1.95;;;;;;;15.75;54.59;97007.27;1661484;84;20988;-81